Holden Village, Washington
Current Conditions -  °F | °C
As of 6:55 PM on Saturday 25 Oct 2014 (Local Time) from KEAT Reporting Station
Light Rain Light Rain  
Wind Chill: 55°   Ceiling: 6000
Heat Index: 55°   Visibility: 10mi
Dew Point: 44°   Wind: 18mph
Humidity: 67%   Direction: 140°SE
Pressure: 29.41"   Gusts: 28mph
Location:  47.9044°N, 120.153°W
Report Text: KEAT 260155Z AUTO 14016G24KT 10SM -RA SCT050 BKN060 13/07 A2941 RMK AO2 PK WND 15031/0141 RAB36 SLP960 P0000 T01280067
Loading
Personal Weather Stations






























Interactive Weather Map
Tropical Storm Tracking
New forecast layout! Learn more

10-Day Weather Forecast

Advertisements
Track Severe Weather on mobile